sensor_id;sensor_type;location;lat;lon;timestamp;P1;durP1;ratioP1;P2;durP2;ratioP2
25758;SDS011;13604;52.496;13.456;2022-09-13T00:00:39;6.22;;;5.43;;
25758;SDS011;13604;52.496;13.456;2022-09-13T00:03:09;6.93;;;5.13;;
25758;SDS011;13604;52.496;13.456;2022-09-13T00:05:35;9.88;;;4.43;;
25758;SDS011;13604;52.496;13.456;2022-09-13T00:08:02;6.68;;;4.80;;
25758;SDS011;13604;52.496;13.456;2022-09-13T00:10:28;5.85;;;4.78;;
25758;SDS011;13604;52.496;13.456;2022-09-13T00:12:53;5.35;;;4.72;;
25758;SDS011;13604;52.496;13.456;2022-09-13T00:15:19;6.55;;;4.78;;
25758;SDS011;13604;52.496;13.456;2022-09-13T00:17:45;5.97;;;4.40;;
25758;SDS011;13604;52.496;13.456;2022-09-13T00:20:10;5.18;;;4.60;;
25758;SDS011;13604;52.496;13.456;2022-09-13T00:22:35;5.47;;;4.97;;
25758;SDS011;13604;52.496;13.456;2022-09-13T00:25:02;5.65;;;4.80;;
25758;SDS011;13604;52.496;13.456;2022-09-13T00:27:28;5.10;;;4.63;;
25758;SDS011;13604;52.496;13.456;2022-09-13T00:29:53;5.88;;;4.68;;
25758;SDS011;13604;52.496;13.456;2022-09-13T00:32:18;7.45;;;4.57;;
25758;SDS011;13604;52.496;13.456;2022-09-13T00:34:44;5.50;;;4.70;;
25758;SDS011;13604;52.496;13.456;2022-09-13T00:37:11;6.85;;;4.80;;
25758;SDS011;13604;52.496;13.456;2022-09-13T00:39:36;5.38;;;4.57;;
25758;SDS011;13604;52.496;13.456;2022-09-13T00:42:01;13.70;;;5.00;;
25758;SDS011;13604;52.496;13.456;2022-09-13T00:47:15;7.68;;;4.65;;
25758;SDS011;13604;52.496;13.456;2022-09-13T00:49:44;5.72;;;4.57;;
25758;SDS011;13604;52.496;13.456;2022-09-13T00:52:15;7.65;;;5.07;;
25758;SDS011;13604;52.496;13.456;2022-09-13T00:54:45;8.25;;;5.97;;
25758;SDS011;13604;52.496;13.456;2022-09-13T00:57:19;6.15;;;5.35;;
25758;SDS011;13604;52.496;13.456;2022-09-13T00:59:47;7.45;;;5.43;;
25758;SDS011;13604;52.496;13.456;2022-09-13T01:02:17;6.60;;;5.22;;
25758;SDS011;13604;52.496;13.456;2022-09-13T01:04:43;7.47;;;5.35;;
25758;SDS011;13604;52.496;13.456;2022-09-13T01:07:10;7.15;;;5.40;;
25758;SDS011;13604;52.496;13.456;2022-09-13T01:09:41;5.43;;;4.82;;
25758;SDS011;13604;52.496;13.456;2022-09-13T01:12:18;6.80;;;5.68;;
25758;SDS011;13604;52.496;13.456;2022-09-13T01:14:55;5.78;;;4.50;;
25758;SDS011;13604;52.496;13.456;2022-09-13T01:17:22;5.88;;;4.35;;
25758;SDS011;13604;52.496;13.456;2022-09-13T01:19:49;5.45;;;4.47;;
25758;SDS011;13604;52.496;13.456;2022-09-13T01:22:25;7.30;;;4.85;;
25758;SDS011;13604;52.496;13.456;2022-09-13T01:33:57;6.25;;;4.68;;
25758;SDS011;13604;52.496;13.456;2022-09-13T01:36:46;7.45;;;4.63;;
25758;SDS011;13604;52.496;13.456;2022-09-13T01:39:27;5.50;;;4.57;;
25758;SDS011;13604;52.496;13.456;2022-09-13T01:42:13;7.95;;;5.22;;
25758;SDS011;13604;52.496;13.456;2022-09-13T01:50:45;6.10;;;5.20;;
25758;SDS011;13604;52.496;13.456;2022-09-13T01:56:05;6.97;;;5.70;;
25758;SDS011;13604;52.496;13.456;2022-09-13T01:58:41;5.93;;;5.35;;
25758;SDS011;13604;52.496;13.456;2022-09-13T02:04:01;6.70;;;5.70;;
25758;SDS011;13604;52.496;13.456;2022-09-13T02:06:43;7.93;;;5.57;;
25758;SDS011;13604;52.496;13.456;2022-09-13T02:09:15;6.65;;;5.47;;
25758;SDS011;13604;52.496;13.456;2022-09-13T02:11:45;9.25;;;6.80;;
25758;SDS011;13604;52.496;13.456;2022-09-13T02:14:15;7.38;;;5.75;;
25758;SDS011;13604;52.496;13.456;2022-09-13T02:16:50;9.85;;;6.10;;
25758;SDS011;13604;52.496;13.456;2022-09-13T02:19:38;6.20;;;5.35;;
25758;SDS011;13604;52.496;13.456;2022-09-13T02:22:07;7.43;;;6.30;;
25758;SDS011;13604;52.496;13.456;2022-09-13T02:24:38;5.45;;;4.88;;
25758;SDS011;13604;52.496;13.456;2022-09-13T02:27:10;6.28;;;4.90;;
25758;SDS011;13604;52.496;13.456;2022-09-13T02:29:39;5.53;;;5.03;;
25758;SDS011;13604;52.496;13.456;2022-09-13T02:32:09;5.93;;;5.30;;
25758;SDS011;13604;52.496;13.456;2022-09-13T02:34:44;5.95;;;5.00;;
25758;SDS011;13604;52.496;13.456;2022-09-13T02:37:13;5.53;;;5.03;;
25758;SDS011;13604;52.496;13.456;2022-09-13T02:39:49;6.47;;;5.78;;
25758;SDS011;13604;52.496;13.456;2022-09-13T02:42:20;5.57;;;5.07;;
25758;SDS011;13604;52.496;13.456;2022-09-13T02:44:51;7.45;;;6.00;;
25758;SDS011;13604;52.496;13.456;2022-09-13T02:53:08;5.40;;;4.90;;
25758;SDS011;13604;52.496;13.456;2022-09-13T02:55:44;6.07;;;5.47;;
25758;SDS011;13604;52.496;13.456;2022-09-13T03:01:06;6.55;;;5.65;;
25758;SDS011;13604;52.496;13.456;2022-09-13T03:03:32;6.82;;;5.15;;
25758;SDS011;13604;52.496;13.456;2022-09-13T03:05:57;6.90;;;5.10;;
25758;SDS011;13604;52.496;13.456;2022-09-13T03:08:23;5.78;;;5.18;;
25758;SDS011;13604;52.496;13.456;2022-09-13T03:13:50;6.75;;;5.35;;
25758;SDS011;13604;52.496;13.456;2022-09-13T03:19:24;6.05;;;5.45;;
25758;SDS011;13604;52.496;13.456;2022-09-13T03:22:08;6.40;;;5.25;;
25758;SDS011;13604;52.496;13.456;2022-09-13T03:24:51;5.75;;;5.15;;
25758;SDS011;13604;52.496;13.456;2022-09-13T03:27:32;6.40;;;5.68;;
25758;SDS011;13604;52.496;13.456;2022-09-13T03:30:06;6.28;;;5.50;;
25758;SDS011;13604;52.496;13.456;2022-09-13T03:32:50;7.97;;;5.65;;
25758;SDS011;13604;52.496;13.456;2022-09-13T03:35:28;6.15;;;5.28;;
25758;SDS011;13604;52.496;13.456;2022-09-13T03:38:07;6.80;;;6.20;;
25758;SDS011;13604;52.496;13.456;2022-09-13T03:40:42;6.33;;;5.73;;
25758;SDS011;13604;52.496;13.456;2022-09-13T03:43:40;10.07;;;7.38;;
25758;SDS011;13604;52.496;13.456;2022-09-13T03:46:20;7.53;;;6.38;;
25758;SDS011;13604;52.496;13.456;2022-09-13T03:48:50;10.18;;;6.15;;
25758;SDS011;13604;52.496;13.456;2022-09-13T03:51:17;6.25;;;5.65;;
25758;SDS011;13604;52.496;13.456;2022-09-13T03:53:48;6.72;;;5.97;;
25758;SDS011;13604;52.496;13.456;2022-09-13T03:56:21;9.25;;;6.00;;
25758;SDS011;13604;52.496;13.456;2022-09-13T03:58:47;7.53;;;5.78;;
25758;SDS011;13604;52.496;13.456;2022-09-13T04:01:13;6.90;;;5.47;;
25758;SDS011;13604;52.496;13.456;2022-09-13T04:03:44;8.13;;;6.53;;
25758;SDS011;13604;52.496;13.456;2022-09-13T04:06:09;10.95;;;6.57;;
25758;SDS011;13604;52.496;13.456;2022-09-13T04:08:34;9.57;;;6.68;;
25758;SDS011;13604;52.496;13.456;2022-09-13T04:11:00;8.95;;;5.75;;
25758;SDS011;13604;52.496;13.456;2022-09-13T04:13:25;7.40;;;6.35;;
25758;SDS011;13604;52.496;13.456;2022-09-13T04:15:51;9.23;;;6.70;;
25758;SDS011;13604;52.496;13.456;2022-09-13T04:18:16;6.63;;;6.03;;
25758;SDS011;13604;52.496;13.456;2022-09-13T04:20:42;7.68;;;6.10;;
25758;SDS011;13604;52.496;13.456;2022-09-13T04:23:08;7.22;;;6.47;;
25758;SDS011;13604;52.496;13.456;2022-09-13T04:25:33;7.18;;;6.10;;
25758;SDS011;13604;52.496;13.456;2022-09-13T04:28:02;7.30;;;6.38;;
25758;SDS011;13604;52.496;13.456;2022-09-13T04:30:27;6.72;;;5.90;;
25758;SDS011;13604;52.496;13.456;2022-09-13T04:32:53;9.13;;;6.30;;
25758;SDS011;13604;52.496;13.456;2022-09-13T04:35:21;11.43;;;6.82;;
25758;SDS011;13604;52.496;13.456;2022-09-13T04:37:46;9.30;;;7.30;;
25758;SDS011;13604;52.496;13.456;2022-09-13T04:40:11;9.82;;;6.68;;
25758;SDS011;13604;52.496;13.456;2022-09-13T04:42:37;7.20;;;6.30;;
25758;SDS011;13604;52.496;13.456;2022-09-13T04:45:03;9.90;;;7.40;;
25758;SDS011;13604;52.496;13.456;2022-09-13T04:47:29;9.43;;;6.05;;
25758;SDS011;13604;52.496;13.456;2022-09-13T04:49:54;10.07;;;7.07;;
25758;SDS011;13604;52.496;13.456;2022-09-13T04:52:20;10.45;;;7.28;;
25758;SDS011;13604;52.496;13.456;2022-09-13T04:54:45;10.65;;;7.53;;
25758;SDS011;13604;52.496;13.456;2022-09-13T04:57:13;11.32;;;7.05;;
25758;SDS011;13604;52.496;13.456;2022-09-13T04:59:39;7.85;;;6.45;;
25758;SDS011;13604;52.496;13.456;2022-09-13T05:02:04;8.32;;;7.45;;
25758;SDS011;13604;52.496;13.456;2022-09-13T05:04:29;9.77;;;7.53;;
25758;SDS011;13604;52.496;13.456;2022-09-13T05:06:55;14.80;;;7.43;;
25758;SDS011;13604;52.496;13.456;2022-09-13T05:09:20;10.15;;;6.72;;
25758;SDS011;13604;52.496;13.456;2022-09-13T05:11:45;10.45;;;7.40;;
25758;SDS011;13604;52.496;13.456;2022-09-13T05:14:11;12.77;;;7.93;;
25758;SDS011;13604;52.496;13.456;2022-09-13T05:16:36;9.55;;;6.95;;
25758;SDS011;13604;52.496;13.456;2022-09-13T05:19:01;9.68;;;7.05;;
25758;SDS011;13604;52.496;13.456;2022-09-13T05:21:27;10.65;;;6.90;;
25758;SDS011;13604;52.496;13.456;2022-09-13T05:23:54;8.73;;;6.60;;
25758;SDS011;13604;52.496;13.456;2022-09-13T05:26:21;11.60;;;7.45;;
25758;SDS011;13604;52.496;13.456;2022-09-13T05:28:48;12.40;;;7.05;;
25758;SDS011;13604;52.496;13.456;2022-09-13T05:31:14;10.18;;;7.07;;
25758;SDS011;13604;52.496;13.456;2022-09-13T05:33:41;11.07;;;6.75;;
25758;SDS011;13604;52.496;13.456;2022-09-13T05:36:08;7.78;;;6.22;;
25758;SDS011;13604;52.496;13.456;2022-09-13T05:38:33;11.80;;;7.10;;
25758;SDS011;13604;52.496;13.456;2022-09-13T05:40:59;15.18;;;7.70;;
25758;SDS011;13604;52.496;13.456;2022-09-13T05:43:27;10.70;;;7.75;;
25758;SDS011;13604;52.496;13.456;2022-09-13T05:48:29;10.02;;;7.10;;
25758;SDS011;13604;52.496;13.456;2022-09-13T05:50:54;11.57;;;7.80;;
25758;SDS011;13604;52.496;13.456;2022-09-13T05:53:20;13.40;;;7.00;;
25758;SDS011;13604;52.496;13.456;2022-09-13T05:55:45;10.25;;;7.40;;
25758;SDS011;13604;52.496;13.456;2022-09-13T05:58:10;10.20;;;6.75;;
25758;SDS011;13604;52.496;13.456;2022-09-13T06:00:36;12.57;;;7.35;;
25758;SDS011;13604;52.496;13.456;2022-09-13T06:03:01;9.23;;;7.22;;
25758;SDS011;13604;52.496;13.456;2022-09-13T06:05:27;10.27;;;7.47;;
25758;SDS011;13604;52.496;13.456;2022-09-13T06:07:52;17.35;;;8.88;;
25758;SDS011;13604;52.496;13.456;2022-09-13T06:10:17;13.38;;;8.20;;
25758;SDS011;13604;52.496;13.456;2022-09-13T06:12:44;8.90;;;7.18;;
25758;SDS011;13604;52.496;13.456;2022-09-13T06:15:09;12.20;;;9.13;;
25758;SDS011;13604;52.496;13.456;2022-09-13T06:17:35;12.45;;;9.23;;
25758;SDS011;13604;52.496;13.456;2022-09-13T06:20:00;12.63;;;10.27;;
25758;SDS011;13604;52.496;13.456;2022-09-13T06:22:26;13.80;;;10.88;;
25758;SDS011;13604;52.496;13.456;2022-09-13T06:24:57;20.10;;;11.70;;
25758;SDS011;13604;52.496;13.456;2022-09-13T06:27:22;17.23;;;11.43;;
25758;SDS011;13604;52.496;13.456;2022-09-13T06:29:48;15.25;;;10.95;;
25758;SDS011;13604;52.496;13.456;2022-09-13T06:32:13;14.45;;;11.50;;
25758;SDS011;13604;52.496;13.456;2022-09-13T06:34:38;14.13;;;11.07;;
25758;SDS011;13604;52.496;13.456;2022-09-13T06:37:04;13.02;;;10.55;;
25758;SDS011;13604;52.496;13.456;2022-09-13T06:39:29;19.58;;;11.85;;
25758;SDS011;13604;52.496;13.456;2022-09-13T06:41:56;17.15;;;12.13;;
25758;SDS011;13604;52.496;13.456;2022-09-13T06:44:21;17.02;;;11.95;;
25758;SDS011;13604;52.496;13.456;2022-09-13T06:46:47;14.93;;;11.38;;
25758;SDS011;13604;52.496;13.456;2022-09-13T06:49:12;14.95;;;11.60;;
25758;SDS011;13604;52.496;13.456;2022-09-13T06:51:38;15.20;;;10.82;;
25758;SDS011;13604;52.496;13.456;2022-09-13T06:54:03;15.35;;;11.68;;
25758;SDS011;13604;52.496;13.456;2022-09-13T06:56:29;15.35;;;10.73;;
25758;SDS011;13604;52.496;13.456;2022-09-13T06:58:57;18.02;;;12.52;;
25758;SDS011;13604;52.496;13.456;2022-09-13T07:01:25;17.45;;;13.05;;
25758;SDS011;13604;52.496;13.456;2022-09-13T07:03:53;18.35;;;13.07;;
25758;SDS011;13604;52.496;13.456;2022-09-13T07:06:23;16.17;;;12.27;;
25758;SDS011;13604;52.496;13.456;2022-09-13T07:08:54;18.63;;;12.35;;
25758;SDS011;13604;52.496;13.456;2022-09-13T07:11:22;14.65;;;11.07;;
25758;SDS011;13604;52.496;13.456;2022-09-13T07:16:15;16.40;;;11.88;;
25758;SDS011;13604;52.496;13.456;2022-09-13T07:18:41;17.70;;;13.05;;
25758;SDS011;13604;52.496;13.456;2022-09-13T07:21:07;20.15;;;11.20;;
25758;SDS011;13604;52.496;13.456;2022-09-13T07:23:35;19.33;;;11.98;;
25758;SDS011;13604;52.496;13.456;2022-09-13T07:26:02;24.17;;;11.45;;
25758;SDS011;13604;52.496;13.456;2022-09-13T07:28:36;21.52;;;11.60;;
25758;SDS011;13604;52.496;13.456;2022-09-13T07:31:04;17.48;;;10.88;;
25758;SDS011;13604;52.496;13.456;2022-09-13T07:33:29;13.23;;;10.00;;
25758;SDS011;13604;52.496;13.456;2022-09-13T07:35:55;13.80;;;11.10;;
25758;SDS011;13604;52.496;13.456;2022-09-13T07:38:21;16.35;;;11.60;;
25758;SDS011;13604;52.496;13.456;2022-09-13T07:40:56;14.88;;;10.18;;
25758;SDS011;13604;52.496;13.456;2022-09-13T07:43:23;15.45;;;12.07;;
25758;SDS011;13604;52.496;13.456;2022-09-13T07:45:55;18.63;;;11.80;;
25758;SDS011;13604;52.496;13.456;2022-09-13T07:48:25;15.75;;;11.50;;
25758;SDS011;13604;52.496;13.456;2022-09-13T07:50:58;19.33;;;12.70;;
25758;SDS011;13604;52.496;13.456;2022-09-13T07:53:32;13.10;;;10.52;;
25758;SDS011;13604;52.496;13.456;2022-09-13T07:55:59;13.88;;;9.57;;
25758;SDS011;13604;52.496;13.456;2022-09-13T07:58:26;13.55;;;10.70;;
25758;SDS011;13604;52.496;13.456;2022-09-13T08:00:51;15.10;;;11.05;;
25758;SDS011;13604;52.496;13.456;2022-09-13T08:03:16;15.32;;;10.50;;
25758;SDS011;13604;52.496;13.456;2022-09-13T08:05:42;16.13;;;10.75;;
25758;SDS011;13604;52.496;13.456;2022-09-13T08:08:07;14.77;;;10.50;;
25758;SDS011;13604;52.496;13.456;2022-09-13T08:10:33;22.90;;;11.07;;
25758;SDS011;13604;52.496;13.456;2022-09-13T08:12:59;18.58;;;9.60;;
25758;SDS011;13604;52.496;13.456;2022-09-13T08:15:24;16.88;;;10.52;;
25758;SDS011;13604;52.496;13.456;2022-09-13T08:17:50;15.57;;;10.02;;
25758;SDS011;13604;52.496;13.456;2022-09-13T08:20:15;15.85;;;9.05;;
25758;SDS011;13604;52.496;13.456;2022-09-13T08:22:40;18.25;;;10.18;;
25758;SDS011;13604;52.496;13.456;2022-09-13T08:25:06;12.05;;;9.27;;
25758;SDS011;13604;52.496;13.456;2022-09-13T08:27:31;17.48;;;10.48;;
25758;SDS011;13604;52.496;13.456;2022-09-13T08:29:56;11.52;;;9.32;;
25758;SDS011;13604;52.496;13.456;2022-09-13T08:32:22;15.00;;;10.15;;
25758;SDS011;13604;52.496;13.456;2022-09-13T08:34:47;12.82;;;9.52;;
25758;SDS011;13604;52.496;13.456;2022-09-13T08:37:12;15.93;;;9.95;;
25758;SDS011;13604;52.496;13.456;2022-09-13T08:39:38;17.92;;;9.93;;
25758;SDS011;13604;52.496;13.456;2022-09-13T08:42:18;14.10;;;10.05;;
25758;SDS011;13604;52.496;13.456;2022-09-13T08:44:52;14.50;;;9.52;;
25758;SDS011;13604;52.496;13.456;2022-09-13T08:50:10;12.55;;;9.38;;
25758;SDS011;13604;52.496;13.456;2022-09-13T08:52:43;15.88;;;9.32;;
25758;SDS011;13604;52.496;13.456;2022-09-13T08:55:36;13.35;;;8.70;;
25758;SDS011;13604;52.496;13.456;2022-09-13T09:01:07;25.20;;;8.15;;
25758;SDS011;13604;52.496;13.456;2022-09-13T09:06:17;10.95;;;8.13;;
25758;SDS011;13604;52.496;13.456;2022-09-13T09:09:06;10.18;;;7.90;;
25758;SDS011;13604;52.496;13.456;2022-09-13T09:11:41;13.00;;;8.13;;
25758;SDS011;13604;52.496;13.456;2022-09-13T09:14:20;9.57;;;7.65;;
25758;SDS011;13604;52.496;13.456;2022-09-13T09:16:54;10.45;;;8.23;;
25758;SDS011;13604;52.496;13.456;2022-09-13T09:22:33;11.50;;;7.53;;
25758;SDS011;13604;52.496;13.456;2022-09-13T09:25:00;10.27;;;7.45;;
25758;SDS011;13604;52.496;13.456;2022-09-13T09:27:28;14.57;;;6.97;;
25758;SDS011;13604;52.496;13.456;2022-09-13T09:29:54;8.55;;;6.60;;
25758;SDS011;13604;52.496;13.456;2022-09-13T09:35:28;7.82;;;6.43;;
25758;SDS011;13604;52.496;13.456;2022-09-13T09:41:10;8.90;;;6.22;;
25758;SDS011;13604;52.496;13.456;2022-09-13T09:43:50;9.18;;;6.78;;
25758;SDS011;13604;52.496;13.456;2022-09-13T09:46:25;8.38;;;6.60;;
25758;SDS011;13604;52.496;13.456;2022-09-13T09:49:01;9.18;;;6.68;;
25758;SDS011;13604;52.496;13.456;2022-09-13T09:51:54;7.65;;;6.45;;
25758;SDS011;13604;52.496;13.456;2022-09-13T09:54:20;7.55;;;6.35;;
25758;SDS011;13604;52.496;13.456;2022-09-13T09:56:51;7.43;;;5.97;;
25758;SDS011;13604;52.496;13.456;2022-09-13T09:59:29;11.35;;;6.60;;
25758;SDS011;13604;52.496;13.456;2022-09-13T10:01:56;6.70;;;6.00;;
25758;SDS011;13604;52.496;13.456;2022-09-13T10:04:23;8.50;;;6.78;;
25758;SDS011;13604;52.496;13.456;2022-09-13T10:06:49;6.75;;;6.07;;
25758;SDS011;13604;52.496;13.456;2022-09-13T10:09:31;8.55;;;6.13;;
25758;SDS011;13604;52.496;13.456;2022-09-13T10:11:57;7.53;;;5.60;;
25758;SDS011;13604;52.496;13.456;2022-09-13T10:14:33;6.30;;;5.65;;
25758;SDS011;13604;52.496;13.456;2022-09-13T10:17:14;7.45;;;5.85;;
25758;SDS011;13604;52.496;13.456;2022-09-13T10:19:49;7.55;;;5.90;;
25758;SDS011;13604;52.496;13.456;2022-09-13T10:24:52;11.65;;;6.53;;
25758;SDS011;13604;52.496;13.456;2022-09-13T10:27:30;7.20;;;6.10;;
25758;SDS011;13604;52.496;13.456;2022-09-13T10:29:58;5.93;;;5.28;;
25758;SDS011;13604;52.496;13.456;2022-09-13T10:32:26;9.05;;;6.88;;
25758;SDS011;13604;52.496;13.456;2022-09-13T10:34:52;7.75;;;5.43;;
25758;SDS011;13604;52.496;13.456;2022-09-13T10:37:27;11.02;;;6.93;;
25758;SDS011;13604;52.496;13.456;2022-09-13T10:39:57;7.20;;;6.45;;
25758;SDS011;13604;52.496;13.456;2022-09-13T10:42:28;8.60;;;6.85;;
25758;SDS011;13604;52.496;13.456;2022-09-13T10:44:56;8.70;;;6.72;;
25758;SDS011;13604;52.496;13.456;2022-09-13T10:47:25;7.85;;;6.05;;
25758;SDS011;13604;52.496;13.456;2022-09-13T10:49:52;8.70;;;6.70;;
25758;SDS011;13604;52.496;13.456;2022-09-13T10:52:35;8.00;;;6.95;;
25758;SDS011;13604;52.496;13.456;2022-09-13T10:57:44;9.80;;;7.50;;
25758;SDS011;13604;52.496;13.456;2022-09-13T11:00:12;11.85;;;7.10;;
25758;SDS011;13604;52.496;13.456;2022-09-13T11:11:35;10.50;;;7.93;;
25758;SDS011;13604;52.496;13.456;2022-09-13T11:17:22;10.15;;;7.60;;
25758;SDS011;13604;52.496;13.456;2022-09-13T11:25:48;14.25;;;9.02;;
25758;SDS011;13604;52.496;13.456;2022-09-13T11:34:15;12.73;;;7.95;;
25758;SDS011;13604;52.496;13.456;2022-09-13T11:42:44;16.23;;;9.75;;
25758;SDS011;13604;52.496;13.456;2022-09-13T11:45:22;11.95;;;8.90;;
25758;SDS011;13604;52.496;13.456;2022-09-13T11:55:40;14.90;;;9.48;;
25758;SDS011;13604;52.496;13.456;2022-09-13T11:58:17;14.82;;;9.27;;
25758;SDS011;13604;52.496;13.456;2022-09-13T12:00:54;14.75;;;9.85;;
25758;SDS011;13604;52.496;13.456;2022-09-13T12:03:27;14.07;;;9.32;;
25758;SDS011;13604;52.496;13.456;2022-09-13T12:06:00;15.52;;;9.25;;
25758;SDS011;13604;52.496;13.456;2022-09-13T12:08:30;11.98;;;9.00;;
25758;SDS011;13604;52.496;13.456;2022-09-13T12:13:52;12.20;;;8.30;;
25758;SDS011;13604;52.496;13.456;2022-09-13T12:16:42;17.63;;;9.43;;
25758;SDS011;13604;52.496;13.456;2022-09-13T12:22:04;15.50;;;9.57;;
25758;SDS011;13604;52.496;13.456;2022-09-13T12:24:33;11.80;;;8.57;;
25758;SDS011;13604;52.496;13.456;2022-09-13T12:32:40;11.43;;;9.32;;
25758;SDS011;13604;52.496;13.456;2022-09-13T12:35:12;13.02;;;9.63;;
25758;SDS011;13604;52.496;13.456;2022-09-13T12:38:08;15.23;;;9.70;;
25758;SDS011;13604;52.496;13.456;2022-09-13T12:40:57;11.25;;;9.40;;
25758;SDS011;13604;52.496;13.456;2022-09-13T12:43:43;14.50;;;10.15;;
25758;SDS011;13604;52.496;13.456;2022-09-13T12:52:05;18.45;;;10.57;;
25758;SDS011;13604;52.496;13.456;2022-09-13T12:54:51;17.63;;;10.52;;
25758;SDS011;13604;52.496;13.456;2022-09-13T12:57:43;13.38;;;9.77;;
25758;SDS011;13604;52.496;13.456;2022-09-13T13:00:25;14.63;;;10.55;;
25758;SDS011;13604;52.496;13.456;2022-09-13T13:03:02;16.20;;;10.38;;
25758;SDS011;13604;52.496;13.456;2022-09-13T13:05:37;17.30;;;10.70;;
25758;SDS011;13604;52.496;13.456;2022-09-13T13:10:59;16.27;;;11.40;;
25758;SDS011;13604;52.496;13.456;2022-09-13T13:13:32;13.57;;;9.60;;
25758;SDS011;13604;52.496;13.456;2022-09-13T13:15:59;15.57;;;10.52;;
25758;SDS011;13604;52.496;13.456;2022-09-13T13:23:29;13.27;;;9.70;;
25758;SDS011;13604;52.496;13.456;2022-09-13T13:31:07;15.68;;;11.63;;
25758;SDS011;13604;52.496;13.456;2022-09-13T13:33:44;15.65;;;11.40;;
25758;SDS011;13604;52.496;13.456;2022-09-13T13:36:25;15.63;;;10.98;;
25758;SDS011;13604;52.496;13.456;2022-09-13T13:38:58;11.57;;;9.60;;
25758;SDS011;13604;52.496;13.456;2022-09-13T13:43:56;16.63;;;10.48;;
25758;SDS011;13604;52.496;13.456;2022-09-13T13:46:24;14.80;;;10.15;;
25758;SDS011;13604;52.496;13.456;2022-09-13T13:48:52;12.48;;;9.35;;
25758;SDS011;13604;52.496;13.456;2022-09-13T13:51:19;14.55;;;10.55;;
25758;SDS011;13604;52.496;13.456;2022-09-13T13:53:52;12.25;;;8.65;;
25758;SDS011;13604;52.496;13.456;2022-09-13T13:59:02;14.73;;;7.90;;
25758;SDS011;13604;52.496;13.456;2022-09-13T14:01:31;9.13;;;6.82;;
25758;SDS011;13604;52.496;13.456;2022-09-13T14:07:03;10.77;;;7.38;;
25758;SDS011;13604;52.496;13.456;2022-09-13T14:09:37;9.20;;;7.22;;
25758;SDS011;13604;52.496;13.456;2022-09-13T14:17:49;9.50;;;6.35;;
25758;SDS011;13604;52.496;13.456;2022-09-13T14:20:16;7.47;;;5.70;;
25758;SDS011;13604;52.496;13.456;2022-09-13T14:22:45;8.77;;;5.85;;
25758;SDS011;13604;52.496;13.456;2022-09-13T14:27:48;4.20;;;3.80;;
25758;SDS011;13604;52.496;13.456;2022-09-13T14:30:17;4.20;;;3.80;;
25758;SDS011;13604;52.496;13.456;2022-09-13T14:32:43;4.47;;;3.95;;
25758;SDS011;13604;52.496;13.456;2022-09-13T14:35:25;8.00;;;4.15;;
25758;SDS011;13604;52.496;13.456;2022-09-13T14:40:48;5.70;;;4.20;;
25758;SDS011;13604;52.496;13.456;2022-09-13T14:43:17;7.25;;;4.28;;
25758;SDS011;13604;52.496;13.456;2022-09-13T14:45:45;4.90;;;3.85;;
25758;SDS011;13604;52.496;13.456;2022-09-13T14:48:28;7.68;;;4.50;;
25758;SDS011;13604;52.496;13.456;2022-09-13T14:53:44;5.15;;;4.65;;
25758;SDS011;13604;52.496;13.456;2022-09-13T14:56:15;5.70;;;4.60;;
25758;SDS011;13604;52.496;13.456;2022-09-13T14:58:44;7.28;;;4.60;;
25758;SDS011;13604;52.496;13.456;2022-09-13T15:01:14;6.32;;;5.25;;
25758;SDS011;13604;52.496;13.456;2022-09-13T15:03:43;7.55;;;5.32;;
25758;SDS011;13604;52.496;13.456;2022-09-13T15:06:23;5.65;;;5.05;;
25758;SDS011;13604;52.496;13.456;2022-09-13T15:08:51;8.98;;;6.53;;
25758;SDS011;13604;52.496;13.456;2022-09-13T15:11:33;6.32;;;5.35;;
25758;SDS011;13604;52.496;13.456;2022-09-13T15:14:01;11.70;;;6.80;;
25758;SDS011;13604;52.496;13.456;2022-09-13T15:16:27;7.72;;;6.60;;
25758;SDS011;13604;52.496;13.456;2022-09-13T15:19:29;8.75;;;7.05;;
25758;SDS011;13604;52.496;13.456;2022-09-13T15:22:10;10.93;;;6.72;;
25758;SDS011;13604;52.496;13.456;2022-09-13T15:24:46;9.77;;;6.45;;
25758;SDS011;13604;52.496;13.456;2022-09-13T15:27:15;12.52;;;7.03;;
25758;SDS011;13604;52.496;13.456;2022-09-13T15:29:50;7.43;;;5.53;;
25758;SDS011;13604;52.496;13.456;2022-09-13T15:32:19;8.98;;;6.82;;
25758;SDS011;13604;52.496;13.456;2022-09-13T15:34:49;12.10;;;7.35;;
25758;SDS011;13604;52.496;13.456;2022-09-13T15:37:15;10.05;;;7.00;;
25758;SDS011;13604;52.496;13.456;2022-09-13T15:39:45;12.27;;;7.72;;
25758;SDS011;13604;52.496;13.456;2022-09-13T15:42:25;8.15;;;6.85;;
25758;SDS011;13604;52.496;13.456;2022-09-13T15:44:50;12.82;;;7.22;;
25758;SDS011;13604;52.496;13.456;2022-09-13T15:47:16;10.20;;;6.72;;
25758;SDS011;13604;52.496;13.456;2022-09-13T15:49:46;10.43;;;7.45;;
25758;SDS011;13604;52.496;13.456;2022-09-13T15:52:13;10.10;;;7.30;;
25758;SDS011;13604;52.496;13.456;2022-09-13T15:54:40;8.10;;;7.13;;
25758;SDS011;13604;52.496;13.456;2022-09-13T15:57:16;9.70;;;6.68;;
25758;SDS011;13604;52.496;13.456;2022-09-13T15:59:45;8.80;;;6.75;;
25758;SDS011;13604;52.496;13.456;2022-09-13T16:02:17;10.15;;;7.10;;
25758;SDS011;13604;52.496;13.456;2022-09-13T16:04:45;7.88;;;6.10;;
25758;SDS011;13604;52.496;13.456;2022-09-13T16:07:11;10.35;;;6.97;;
25758;SDS011;13604;52.496;13.456;2022-09-13T16:09:36;8.15;;;6.35;;
25758;SDS011;13604;52.496;13.456;2022-09-13T16:12:02;11.90;;;6.05;;
25758;SDS011;13604;52.496;13.456;2022-09-13T16:14:28;7.65;;;5.93;;
25758;SDS011;13604;52.496;13.456;2022-09-13T16:16:53;5.75;;;5.00;;
25758;SDS011;13604;52.496;13.456;2022-09-13T16:19:20;7.32;;;5.57;;
25758;SDS011;13604;52.496;13.456;2022-09-13T16:21:46;7.65;;;5.20;;
25758;SDS011;13604;52.496;13.456;2022-09-13T16:24:13;7.18;;;4.72;;
25758;SDS011;13604;52.496;13.456;2022-09-13T16:26:38;7.00;;;5.28;;
25758;SDS011;13604;52.496;13.456;2022-09-13T16:29:05;6.35;;;5.03;;
25758;SDS011;13604;52.496;13.456;2022-09-13T16:31:30;7.28;;;5.57;;
25758;SDS011;13604;52.496;13.456;2022-09-13T16:33:56;10.38;;;5.80;;
25758;SDS011;13604;52.496;13.456;2022-09-13T16:36:21;7.45;;;5.18;;
25758;SDS011;13604;52.496;13.456;2022-09-13T16:38:47;6.18;;;4.43;;
25758;SDS011;13604;52.496;13.456;2022-09-13T16:41:12;6.78;;;5.00;;
25758;SDS011;13604;52.496;13.456;2022-09-13T16:43:37;8.20;;;5.80;;
25758;SDS011;13604;52.496;13.456;2022-09-13T16:46:07;7.40;;;5.03;;
25758;SDS011;13604;52.496;13.456;2022-09-13T16:48:33;6.20;;;5.47;;
25758;SDS011;13604;52.496;13.456;2022-09-13T16:51:06;7.07;;;5.13;;
25758;SDS011;13604;52.496;13.456;2022-09-13T16:53:36;6.72;;;5.25;;
25758;SDS011;13604;52.496;13.456;2022-09-13T16:56:04;6.88;;;5.30;;
25758;SDS011;13604;52.496;13.456;2022-09-13T16:58:37;9.70;;;5.40;;
25758;SDS011;13604;52.496;13.456;2022-09-13T17:01:07;9.52;;;5.13;;
25758;SDS011;13604;52.496;13.456;2022-09-13T17:03:34;9.02;;;5.72;;
25758;SDS011;13604;52.496;13.456;2022-09-13T17:06:04;6.70;;;5.35;;
25758;SDS011;13604;52.496;13.456;2022-09-13T17:08:33;5.47;;;4.87;;
25758;SDS011;13604;52.496;13.456;2022-09-13T17:11:03;6.57;;;5.88;;
25758;SDS011;13604;52.496;13.456;2022-09-13T17:13:33;7.28;;;5.45;;
25758;SDS011;13604;52.496;13.456;2022-09-13T17:15:58;11.32;;;6.35;;
25758;SDS011;13604;52.496;13.456;2022-09-13T17:18:24;11.10;;;6.13;;